• Join FlightAware (Why Join?)
  • Login
  • US Flag 
06:02AM EDT


 

Airport Tracker/Info


-or-


 

Live Flight TrackerFlight Track Log ✈ N53NW ✈ 03-Jul-2013 ✈ KTZR - KPIT

Flight Track Log - Related Links

Times and Time Zones

All times are in EDT time to prevent confusion due to time zone crossing. See the N53NW flight status page for this flight to view local times or setup timezone preferences in your user account.

Time Position Orientation Groundspeed Altitude Reporting Facility
EDT Latitude Longitude Course Direction KTS MPH feet Rate Location/Type
06:51AM 39.8628 -83.1358 92° East 204 235 2,400  Level Indianapolis Center
06:52AM 39.8611 -83.0744 92° East 266 306 3,700 2,460 Climbing Indianapolis Center
06:53AM 39.8756 -82.9806 79° East 265 305 6,600 2,760 Climbing Indianapolis Center
06:54AM 39.8897 -82.8767 80° East 288 331 9,300 2,580 Climbing Indianapolis Center
06:55AM 39.9183 -82.7692 71° East 311 358 11,900 2,580 Climbing Indianapolis Center
06:56AM 39.9464 -82.6575 72° East 319 367 14,600 2,400 Climbing Indianapolis Center
06:57AM 39.9736 -82.5444 73° East 323 372 16,900 1,080 Climbing Indianapolis Center
06:58AM 40.0056 -82.4172 72° East 361 415 16,900  Level Indianapolis Center
06:59AM 40.0364 -82.2842 73° East 380 437 17,000  Climbing Indianapolis Center
07:00AM 40.0686 -82.1533 72° East 375 432 17,000  Level Indianapolis Center
07:01AM 40.1000 -82.0222 73° East 375 432 17,000  Level Indianapolis Center
07:02AM 40.1311 -81.8903 73° East 376 433 17,000  Level Indianapolis Center
07:03AM 40.1617 -81.7614 73° East 380 437 17,000  Level Indianapolis Center
07:04AM 40.1928 -81.6306 73° East 377 434 17,000  Level Indianapolis Center
07:05AM 40.2222 -81.4969 74° East 380 437 17,000  Level Indianapolis Center
07:06AM 40.1958 -81.3700 105° East 368 423 17,000  Level Indianapolis Center
07:07AM 40.1564 -81.2525 114° Southeast 354 407 17,000 -420 Level Indianapolis Center
07:08AM 40.1181 -81.1336 113° Southeast 353 406 16,200 -1,320 Descending Indianapolis Center
07:09AM 40.0736 -80.9956 113° Southeast 352 405 14,400 -1,680 Descending Indianapolis Center
07:10AM 40.0361 -80.8819 113° Southeast 341 392 12,900 -1,500 Descending Indianapolis Center
07:11AM 40.0647 -80.7792 70° East 339 390 11,400 -1,380 Descending Indianapolis Center
07:12AM 40.1589 -80.7217 25° Northeast 267 307 10,000 -720 Descending Cleveland Center
07:13AM 40.2444 -80.6756 22° Northeast 290 334 10,000  Level Cleveland Center